Dominia — ICFW — position and weather

sailwx.info

Track history (hours):
 
Tides and Currents Weather Stations Pressure Air Temp Water Temp Dewpoint Dewpoint Depression Visibility Wind Speed Wind Dir Waves Ship Positions

Dominia

Last reported at 2016-Jul-25 15:33 UTC. Time now 2016-Jul-26 16:06 UTC.
Position N 44°46' E 012°56'.

Length 176 m; draft 7.3 m.

Type: Tanker. MMSI: 247273400.

Date/timePositionNaut miles runAvg speedWind from/ knotsBaromVisibWave heightAir tempDewpointWater temp
2016-Jul-25 15:33N 44°46' E 012°56'1413.6
2016-Jul-25 14:33N 44°58' E 012°47'1313.1
2016-Jul-25 13:33N 45°09' E 012°36'1212.2
2016-Jul-25 12:33N 45°18' E 012°25'8 8.4
2016-Jul-25 11:33N 45°24' E 012°16'4 3.3
2016-Jul-25 10:25N 45°27' E 012°16'0 0.0
2016-Jul-25 09:31N 45°27' E 012°16'0 0.0
2016-Jul-25 08:31N 45°27' E 012°16'0 0.0
2016-Jul-25 07:31N 45°27' E 012°16'0 0.0
2016-Jul-25 06:31N 45°27' E 012°16'0 0.0
2016-Jul-25 05:28N 45°27' E 012°16'0 0.0
2016-Jul-25 04:31N 45°27' E 012°16'0 0.0
2016-Jul-25 03:31N 45°27' E 012°16'0 0.0
2016-Jul-25 02:31N 45°27' E 012°16'0 0.0
2016-Jul-25 01:31N 45°27' E 012°16'0 0.0
2016-Jul-25 00:31N 45°27' E 012°16'0 0.0
2016-Jul-24 23:31N 45°27' E 012°16'0 0.0
2016-Jul-24 22:31N 45°27' E 012°16'0 0.0
2016-Jul-24 21:34N 45°27' E 012°16'0 0.0
2016-Jul-24 20:31N 45°27' E 012°16'0 0.0
2016-Jul-24 19:31N 45°27' E 012°16'0 0.0
2016-Jul-24 18:28N 45°27' E 012°16'0 0.0
2016-Jul-24 17:31N 45°27' E 012°16'0 0.0
2016-Jul-24 16:31N 45°27' E 012°16'0 0.0
2016-Jul-24 15:31N 45°27' E 012°16'0 0.0
2016-Jul-24 14:31N 45°27' E 012°16'0 0.0
2016-Jul-24 13:31N 45°27' E 012°16'0 0.0
2016-Jul-24 12:31N 45°27' E 012°16'0 0.0
2016-Jul-24 11:31N 45°27' E 012°16'0 0.0
2016-Jul-24 10:31N 45°27' E 012°16'0 0.0
2016-Jul-24 09:31N 45°27' E 012°16'0 0.0
2016-Jul-24 08:31N 45°27' E 012°16'0 0.0
2016-Jul-24 07:31N 45°27' E 012°16'0 0.0
2016-Jul-24 06:31N 45°27' E 012°16'0 0.0
2016-Jul-24 05:31N 45°27' E 012°16'0 0.0
2016-Jul-24 04:28N 45°27' E 012°16'0 0.0
2016-Jul-24 03:31N 45°27' E 012°16'0 0.0
2016-Jul-24 02:31N 45°27' E 012°16'0 0.0
2016-Jul-24 01:31N 45°27' E 012°16'0 0.0
2016-Jul-24 00:31N 45°27' E 012°16'0 0.0
2016-Jul-23 23:31N 45°27' E 012°16'0 0.0
2016-Jul-23 22:31N 45°27' E 012°16'0 0.0
2016-Jul-23 21:31N 45°27' E 012°16'0 0.0
2016-Jul-23 20:31N 45°27' E 012°16'0 0.0
2016-Jul-23 19:31N 45°27' E 012°16'0 0.0
2016-Jul-23 18:34N 45°27' E 012°16'0 0.0
2016-Jul-23 17:31N 45°27' E 012°16'0 0.0
2016-Jul-23 16:31N 45°27' E 012°16'0 0.0
2016-Jul-23 15:31N 45°27' E 012°16'0 0.0
2016-Jul-23 14:28N 45°27' E 012°16'0 0.0
2016-Jul-23 13:31N 45°27' E 012°16'0 0.0
2016-Jul-23 12:19N 45°27' E 012°16'0 0.0
2016-Jul-23 11:31N 45°27' E 012°16'0 0.0
2016-Jul-23 10:32N 45°27' E 012°16'3 3.2
2016-Jul-23 09:33N 45°24' E 012°16'8 7.6
2016-Jul-23 08:33N 45°19' E 012°24'3 3.2
2016-Jul-23 07:31N 45°19' E 012°29'0 0.1
2016-Jul-23 06:31N 45°19' E 012°29'0 0.1
2016-Jul-23 04:31N 45°19' E 012°29'0 0.0
2016-Jul-23 03:31N 45°19' E 012°29'4 4.5
2016-Jul-23 02:34N 45°16' E 012°33'1313.0
2016-Jul-23 01:34N 45°08' E 012°48'1313.1
2016-Jul-23 00:34N 44°56' E 012°56'1413.6
2016-Jul-22 23:34N 44°43' E 013°03'1413.5
2016-Jul-22 22:34N 44°30' E 013°08'1413.8
2016-Jul-22 21:34N 44°17' E 013°14'1413.9
2016-Jul-22 20:33N 44°09' E 013°30'1413.9
2016-Jul-22 19:33N 44°01' E 013°46'1414.0
2016-Jul-22 18:33N 43°53' E 014°02'1414.0
2016-Jul-22 17:34N 43°46' E 014°18'1414.0
2016-Jul-22 16:34N 43°36' E 014°32'1413.9
2016-Jul-22 15:33N 43°26' E 014°45'1413.8
2016-Jul-22 14:33N 43°16' E 014°58'4113.8
2016-Jul-22 11:33N 42°46' E 015°37'53711.4
2016-Jul-20 12:34N 37°15' E 024°48'1414.4
2016-Jul-20 11:34N 37°23' E 025°03'1514.6
2016-Jul-20 10:33N 37°32' E 025°17'1414.1
2016-Jul-20 09:34N 37°43' E 025°29'  
2016-Jul-17 14:33N 41°56' E 031°18'7612.7
2016-Jul-17 08:33N 42°22' E 032°54'2412.2
2016-Jul-17 06:33N 42°31' E 033°25'3712.4
2016-Jul-17 03:33N 42°43' E 034°13'1612.4
2016-Jul-17 02:17N 42°49' E 034°33'9712.5
2016-Jul-16 18:32N 43°22' E 036°37'1212.7
2016-Jul-16 17:33N 43°26' E 036°53'1412.6
2016-Jul-16 16:27N 43°31' E 037°11'1112.7
2016-Jul-16 15:33N 43°35' E 037°26'2512.7
2016-Jul-16 13:33N 43°43' E 037°59'1312.7
2016-Jul-16 12:33N 43°48' E 038°15'1312.7
2016-Jul-16 11:33N 43°52' E 038°32'1312.8
2016-Jul-16 10:33N 43°57' E 038°49'1212.2
2016-Jul-16 09:33N 44°01' E 039°04'1 1.1
2016-Jul-16 08:32N 44°02' E 039°05'0 0.0
2016-Jul-16 07:32N 44°02' E 039°05'0 0.0
2016-Jul-16 06:32N 44°02' E 039°05'0 0.0
2016-Jul-16 04:32N 44°02' E 039°05'0 0.0
2016-Jul-16 03:32N 44°02' E 039°05'0 0.0
2016-Jul-16 02:32N 44°02' E 039°05'0 0.0
2016-Jul-16 01:32N 44°02' E 039°05'0 0.0
2016-Jul-16 00:32N 44°02' E 039°05'0 0.0
2016-Jul-15 23:32N 44°02' E 039°05'0 0.0
2016-Jul-15 22:32N 44°02' E 039°05'2 2.4
2016-Jul-15 21:33N 44°05' E 039°04'0 0.4
2016-Jul-15 20:31N 44°05' E 039°04'0 0.0
2016-Jul-15 19:31N 44°05' E 039°04'0 0.0
2016-Jul-15 18:31N 44°05' E 039°04'0 0.0
2016-Jul-15 17:31N 44°05' E 039°04'0 0.0
2016-Jul-15 16:31N 44°05' E 039°04'  
Track history (hours):
 
Tides and Currents Weather Stations Pressure Air Temp Water Temp Dewpoint Dewpoint Depression Visibility Wind Speed Wind Dir Waves Ship Positions

Dominia

Last reported at 2016-Jul-25 15:33 UTC. Time now 2016-Jul-26 16:06 UTC.
Position N 44°46' E 012°56'.

Length 176 m; draft 7.3 m.

Type: Tanker. MMSI: 247273400.

Date/timePositionNaut miles runAvg speedWind from/ knotsBaromVisibWave heightAir tempDewpointWater temp
2016-Jul-25 15:33N 44°46' E 012°56'1413.6
2016-Jul-25 14:33N 44°58' E 012°47'1313.1
2016-Jul-25 13:33N 45°09' E 012°36'1212.2
2016-Jul-25 12:33N 45°18' E 012°25'8 8.4
2016-Jul-25 11:33N 45°24' E 012°16'4 3.3
2016-Jul-25 10:25N 45°27' E 012°16'0 0.0
2016-Jul-25 09:31N 45°27' E 012°16'0 0.0
2016-Jul-25 08:31N 45°27' E 012°16'0 0.0
2016-Jul-25 07:31N 45°27' E 012°16'0 0.0
2016-Jul-25 06:31N 45°27' E 012°16'0 0.0
2016-Jul-25 05:28N 45°27' E 012°16'0 0.0
2016-Jul-25 04:31N 45°27' E 012°16'0 0.0
2016-Jul-25 03:31N 45°27' E 012°16'0 0.0
2016-Jul-25 02:31N 45°27' E 012°16'0 0.0
2016-Jul-25 01:31N 45°27' E 012°16'0 0.0
2016-Jul-25 00:31N 45°27' E 012°16'0 0.0
2016-Jul-24 23:31N 45°27' E 012°16'0 0.0
2016-Jul-24 22:31N 45°27' E 012°16'0 0.0
2016-Jul-24 21:34N 45°27' E 012°16'0 0.0
2016-Jul-24 20:31N 45°27' E 012°16'0 0.0
2016-Jul-24 19:31N 45°27' E 012°16'0 0.0
2016-Jul-24 18:28N 45°27' E 012°16'0 0.0
2016-Jul-24 17:31N 45°27' E 012°16'0 0.0
2016-Jul-24 16:31N 45°27' E 012°16'0 0.0
2016-Jul-24 15:31N 45°27' E 012°16'0 0.0
2016-Jul-24 14:31N 45°27' E 012°16'0 0.0
2016-Jul-24 13:31N 45°27' E 012°16'0 0.0
2016-Jul-24 12:31N 45°27' E 012°16'0 0.0
2016-Jul-24 11:31N 45°27' E 012°16'0 0.0
2016-Jul-24 10:31N 45°27' E 012°16'0 0.0
2016-Jul-24 09:31N 45°27' E 012°16'0 0.0
2016-Jul-24 08:31N 45°27' E 012°16'0 0.0
2016-Jul-24 07:31N 45°27' E 012°16'0 0.0
2016-Jul-24 06:31N 45°27' E 012°16'0 0.0
2016-Jul-24 05:31N 45°27' E 012°16'0 0.0
2016-Jul-24 04:28N 45°27' E 012°16'0 0.0
2016-Jul-24 03:31N 45°27' E 012°16'0 0.0
2016-Jul-24 02:31N 45°27' E 012°16'0 0.0
2016-Jul-24 01:31N 45°27' E 012°16'0 0.0
2016-Jul-24 00:31N 45°27' E 012°16'0 0.0
2016-Jul-23 23:31N 45°27' E 012°16'0 0.0
2016-Jul-23 22:31N 45°27' E 012°16'0 0.0
2016-Jul-23 21:31N 45°27' E 012°16'0 0.0
2016-Jul-23 20:31N 45°27' E 012°16'0 0.0
2016-Jul-23 19:31N 45°27' E 012°16'0 0.0
2016-Jul-23 18:34N 45°27' E 012°16'0 0.0
2016-Jul-23 17:31N 45°27' E 012°16'0 0.0
2016-Jul-23 16:31N 45°27' E 012°16'0 0.0
2016-Jul-23 15:31N 45°27' E 012°16'0 0.0
2016-Jul-23 14:28N 45°27' E 012°16'0 0.0
2016-Jul-23 13:31N 45°27' E 012°16'0 0.0
2016-Jul-23 12:19N 45°27' E 012°16'0 0.0
2016-Jul-23 11:31N 45°27' E 012°16'0 0.0
2016-Jul-23 10:32N 45°27' E 012°16'3 3.2
2016-Jul-23 09:33N 45°24' E 012°16'8 7.6
2016-Jul-23 08:33N 45°19' E 012°24'3 3.2
2016-Jul-23 07:31N 45°19' E 012°29'0 0.1
2016-Jul-23 06:31N 45°19' E 012°29'0 0.1
2016-Jul-23 04:31N 45°19' E 012°29'0 0.0
2016-Jul-23 03:31N 45°19' E 012°29'4 4.5
2016-Jul-23 02:34N 45°16' E 012°33'1313.0
2016-Jul-23 01:34N 45°08' E 012°48'1313.1
2016-Jul-23 00:34N 44°56' E 012°56'1413.6
2016-Jul-22 23:34N 44°43' E 013°03'1413.5
2016-Jul-22 22:34N 44°30' E 013°08'1413.8
2016-Jul-22 21:34N 44°17' E 013°14'1413.9
2016-Jul-22 20:33N 44°09' E 013°30'1413.9
2016-Jul-22 19:33N 44°01' E 013°46'1414.0
2016-Jul-22 18:33N 43°53' E 014°02'1414.0
2016-Jul-22 17:34N 43°46' E 014°18'1414.0
2016-Jul-22 16:34N 43°36' E 014°32'1413.9
2016-Jul-22 15:33N 43°26' E 014°45'1413.8
2016-Jul-22 14:33N 43°16' E 014°58'4113.8
2016-Jul-22 11:33N 42°46' E 015°37'53711.4
2016-Jul-20 12:34N 37°15' E 024°48'1414.4
2016-Jul-20 11:34N 37°23' E 025°03'1514.6
2016-Jul-20 10:33N 37°32' E 025°17'1414.1
2016-Jul-20 09:34N 37°43' E 025°29'  
2016-Jul-17 14:33N 41°56' E 031°18'7612.7
2016-Jul-17 08:33N 42°22' E 032°54'2412.2
2016-Jul-17 06:33N 42°31' E 033°25'3712.4
2016-Jul-17 03:33N 42°43' E 034°13'1612.4
2016-Jul-17 02:17N 42°49' E 034°33'9712.5
2016-Jul-16 18:32N 43°22' E 036°37'1212.7
2016-Jul-16 17:33N 43°26' E 036°53'1412.6
2016-Jul-16 16:27N 43°31' E 037°11'1112.7
2016-Jul-16 15:33N 43°35' E 037°26'2512.7
2016-Jul-16 13:33N 43°43' E 037°59'1312.7
2016-Jul-16 12:33N 43°48' E 038°15'1312.7
2016-Jul-16 11:33N 43°52' E 038°32'1312.8
2016-Jul-16 10:33N 43°57' E 038°49'1212.2
2016-Jul-16 09:33N 44°01' E 039°04'1 1.1
2016-Jul-16 08:32N 44°02' E 039°05'0 0.0
2016-Jul-16 07:32N 44°02' E 039°05'0 0.0
2016-Jul-16 06:32N 44°02' E 039°05'0 0.0
2016-Jul-16 04:32N 44°02' E 039°05'0 0.0
2016-Jul-16 03:32N 44°02' E 039°05'0 0.0
2016-Jul-16 02:32N 44°02' E 039°05'0 0.0
2016-Jul-16 01:32N 44°02' E 039°05'0 0.0
2016-Jul-16 00:32N 44°02' E 039°05'0 0.0
2016-Jul-15 23:32N 44°02' E 039°05'0 0.0
2016-Jul-15 22:32N 44°02' E 039°05'2 2.4
2016-Jul-15 21:33N 44°05' E 039°04'0 0.4
2016-Jul-15 20:31N 44°05' E 039°04'0 0.0
2016-Jul-15 19:31N 44°05' E 039°04'0 0.0
2016-Jul-15 18:31N 44°05' E 039°04'0 0.0
2016-Jul-15 17:31N 44°05' E 039°04'0 0.0
2016-Jul-15 16:31N 44°05' E 039°04'  

Dump ship's entire track history